Time,TemperatureF,DewpointF,PressureIn,WindDirection,WindDirectionDegrees,WindSpeedMPH,WindSpeedGustMPH,Humidity,HourlyPrecipIn,Conditions,Clouds,dailyrainin,SoftwareType,DateUTC
2013-03-26 00:00:00,33.3,28.1,29.90,NNW,334,1.5,2.0,81,0.00,,,0.00,WUHU216HW,2013-03-26 04:00:00,
2013-03-26 00:01:00,33.3,28.1,29.90,NNW,341,1.1,2.0,81,0.00,,,0.00,WUHU216HW,2013-03-26 04:01:00,
2013-03-26 00:06:00,33.5,28.5,29.90,NNW,338,1.1,1.6,82,0.00,,,0.00,WUHU216HW,2013-03-26 04:06:00,
2013-03-26 00:07:00,33.5,28.5,29.90,NNW,332,1.3,2.0,82,0.00,,,0.00,WUHU216HW,2013-03-26 04:07:00,
2013-03-26 00:12:00,33.5,28.3,29.91,North,350,1.6,2.5,81,0.00,,,0.00,WUHU216HW,2013-03-26 04:12:00,
2013-03-26 00:17:00,33.3,28.1,29.91,NW,313,0.4,0.7,81,0.00,,,0.00,WUHU216HW,2013-03-26 04:17:00,
2013-03-26 00:22:00,33.3,28.1,29.91,NW,316,0.9,1.1,81,0.00,,,0.00,WUHU216HW,2013-03-26 04:22:00,
2013-03-26 00:28:00,33.1,27.9,29.91,NNW,338,0.6,0.9,81,0.00,,,0.00,WUHU216HW,2013-03-26 04:28:00,
2013-03-26 00:33:00,32.9,27.7,29.91,NNW,344,0.7,0.7,81,0.00,,,0.00,WUHU216HW,2013-03-26 04:33:00,
2013-03-26 00:38:00,32.9,28.0,29.91,NNW,328,1.0,1.3,82,0.00,,,0.00,WUHU216HW,2013-03-26 04:38:00,
2013-03-26 00:43:00,32.9,27.7,29.90,NW,326,0.5,1.1,81,0.00,,,0.00,WUHU216HW,2013-03-26 04:43:00,
2013-03-26 00:49:00,32.8,27.5,29.90,NNW,335,1.1,1.8,81,0.00,,,0.00,WUHU216HW,2013-03-26 04:49:00,
2013-03-26 00:54:00,32.9,27.7,29.90,NNW,347,0.9,1.6,81,0.00,,,0.00,WUHU216HW,2013-03-26 04:54:00,
2013-03-26 00:59:00,32.9,27.7,29.90,NNW,331,0.9,1.8,81,0.00,,,0.00,WUHU216HW,2013-03-26 04:59:00,
2013-03-26 01:04:00,32.9,28.0,29.90,NNW,338,1.5,1.8,82,0.00,,,0.00,WUHU216HW,2013-03-26 05:04:00,
2013-03-26 01:09:00,32.9,27.7,29.90,NW,326,1.7,2.0,81,0.00,,,0.00,WUHU216HW,2013-03-26 05:09:00,
2013-03-26 01:14:00,32.9,27.7,29.90,NNW,329,0.9,1.8,81,0.00,,,0.00,WUHU216HW,2013-03-26 05:14:00,
2013-03-26 01:19:00,33.1,27.9,29.90,NNW,346,1.6,2.2,81,0.00,,,0.00,WUHU216HW,2013-03-26 05:19:00,
2013-03-26 01:25:00,33.1,27.9,29.90,North,350,1.5,2.5,81,0.00,,,0.00,WUHU216HW,2013-03-26 05:25:00,
2013-03-26 01:30:00,32.9,27.5,29.90,NNW,333,2.1,2.5,80,0.00,,,0.00,WUHU216HW,2013-03-26 05:30:00,
2013-03-26 01:35:00,32.9,27.5,29.91,NNW,341,1.9,2.2,80,0.00,,,0.00,WUHU216HW,2013-03-26 05:35:00,
2013-03-26 01:40:00,32.9,27.5,29.91,North,5,2.1,2.5,80,0.00,,,0.00,WUHU216HW,2013-03-26 05:40:00,
2013-03-26 01:46:00,32.9,27.5,29.91,NNW,338,1.6,2.2,80,0.00,,,0.00,WUHU216HW,2013-03-26 05:46:00,
2013-03-26 01:51:00,32.9,27.5,29.91,NNW,329,1.5,2.5,80,0.00,,,0.00,WUHU216HW,2013-03-26 05:51:00,
2013-03-26 01:56:00,32.9,27.5,29.91,NNW,339,1.7,1.8,80,0.00,,,0.00,WUHU216HW,2013-03-26 05:56:00,
2013-03-26 02:02:00,32.9,27.5,29.91,NNW,340,1.5,2.5,80,0.00,,,0.00,WUHU216HW,2013-03-26 06:02:00,
2013-03-26 02:07:00,32.9,27.5,29.91,NNW,330,2.1,3.4,80,0.00,,,0.00,WUHU216HW,2013-03-26 06:07:00,
2013-03-26 02:12:00,32.9,27.5,29.91,NNW,338,1.6,2.2,80,0.00,,,0.00,WUHU216HW,2013-03-26 06:12:00,
2013-03-26 02:17:00,32.9,27.1,29.91,NNW,339,1.3,1.8,79,0.00,,,0.00,WUHU216HW,2013-03-26 06:17:00,
2013-03-26 02:22:00,32.9,27.1,29.91,NNW,331,1.6,2.5,79,0.00,,,0.00,WUHU216HW,2013-03-26 06:22:00,
2013-03-26 02:27:00,32.9,27.1,29.91,NNW,338,1.5,1.8,79,0.00,,,0.00,WUHU216HW,2013-03-26 06:27:00,
2013-03-26 02:32:00,32.9,27.1,29.92,NNW,341,2.7,3.1,79,0.00,,,0.00,WUHU216HW,2013-03-26 06:32:00,
2013-03-26 02:37:00,32.9,27.1,29.91,North,358,1.1,1.8,79,0.00,,,0.00,WUHU216HW,2013-03-26 06:37:00,
2013-03-26 02:42:00,32.8,27.0,29.92,NW,325,1.3,1.8,79,0.00,,,0.00,WUHU216HW,2013-03-26 06:42:00,
2013-03-26 02:47:00,32.8,27.0,29.92,NNW,333,0.5,1.3,79,0.00,,,0.00,WUHU216HW,2013-03-26 06:47:00,
2013-03-26 02:52:00,32.8,27.0,29.92,NNW,345,1.1,1.1,79,0.00,,,0.00,WUHU216HW,2013-03-26 06:52:00,
2013-03-26 02:58:00,32.8,27.0,29.91,NNW,341,1.1,1.3,79,0.00,,,0.00,WUHU216HW,2013-03-26 06:58:00,
2013-03-26 03:03:00,32.8,27.0,29.91,NNW,338,1.5,1.8,79,0.00,,,0.00,WUHU216HW,2013-03-26 07:03:00,
2013-03-26 03:08:00,32.8,27.0,29.91,NNW,338,2.3,3.4,79,0.00,,,0.00,WUHU216HW,2013-03-26 07:08:00,
2013-03-26 03:13:00,32.8,27.0,29.91,NNW,338,1.1,1.1,79,0.00,,,0.00,WUHU216HW,2013-03-26 07:13:00,
2013-03-26 03:18:00,32.8,27.0,29.92,NNW,342,1.3,1.6,79,0.00,,,0.00,WUHU216HW,2013-03-26 07:18:00,
2013-03-26 03:23:00,32.6,26.8,29.92,NNW,345,1.4,1.8,79,0.00,,,0.00,WUHU216HW,2013-03-26 07:23:00,
2013-03-26 03:28:00,32.6,27.1,29.92,NW,323,3.1,4.0,80,0.00,,,0.00,WUHU216HW,2013-03-26 07:28:00,
2013-03-26 03:33:00,32.6,26.8,29.92,NNW,342,1.6,2.5,79,0.00,,,0.00,WUHU216HW,2013-03-26 07:33:00,
2013-03-26 03:38:00,32.8,27.0,29.92,NNW,338,1.5,2.5,79,0.00,,,0.00,WUHU216HW,2013-03-26 07:38:00,
2013-03-26 03:43:00,32.6,26.8,29.92,NNW,346,1.3,1.8,79,0.00,,,0.00,WUHU216HW,2013-03-26 07:43:00,
2013-03-26 03:48:00,32.6,26.8,29.92,North,349,1.2,1.6,79,0.00,,,0.00,WUHU216HW,2013-03-26 07:48:00,
2013-03-26 03:53:00,32.4,26.6,29.92,NNW,345,1.6,1.8,79,0.00,,,0.00,WUHU216HW,2013-03-26 07:53:00,
2013-03-26 03:58:00,32.4,26.6,29.92,North,356,1.3,1.6,79,0.00,,,0.00,WUHU216HW,2013-03-26 07:58:00,
2013-03-26 04:03:00,32.2,26.5,29.92,NNW,345,1.2,1.8,79,0.00,,,0.00,WUHU216HW,2013-03-26 08:03:00,
2013-03-26 04:09:00,32.4,27.0,29.92,NNW,338,2.3,2.9,80,0.00,,,0.00,WUHU216HW,2013-03-26 08:09:00,
2013-03-26 04:14:00,32.4,26.6,29.92,NNW,342,1.7,2.0,79,0.00,,,0.00,WUHU216HW,2013-03-26 08:14:00,
2013-03-26 04:19:00,32.2,26.5,29.92,NNW,346,1.5,1.8,79,0.00,,,0.00,WUHU216HW,2013-03-26 08:19:00,
2013-03-26 04:24:00,32.2,26.8,29.92,NNW,338,1.1,2.0,80,0.00,,,0.00,WUHU216HW,2013-03-26 08:24:00,
2013-03-26 04:29:00,32.2,26.8,29.92,NNW,338,0.9,1.1,80,0.00,,,0.00,WUHU216HW,2013-03-26 08:29:00,
2013-03-26 04:34:00,32.0,26.6,29.92,NNW,338,0.9,1.3,80,0.00,,,0.00,WUHU216HW,2013-03-26 08:34:00,
2013-03-26 04:39:00,32.0,26.6,29.92,NNW,344,1.4,1.8,80,0.00,,,0.00,WUHU216HW,2013-03-26 08:39:00,
2013-03-26 04:44:00,32.0,26.6,29.92,NNW,345,0.9,1.8,80,0.00,,,0.00,WUHU216HW,2013-03-26 08:44:00,
2013-03-26 04:49:00,32.0,26.3,29.92,NNW,338,0.9,1.1,79,0.00,,,0.00,WUHU216HW,2013-03-26 08:49:00,
2013-03-26 04:54:00,32.0,26.3,29.92,NNW,338,1.7,2.5,79,0.00,,,0.00,WUHU216HW,2013-03-26 08:54:00,
2013-03-26 04:59:00,32.0,26.3,29.92,NNW,338,0.9,1.1,79,0.00,,,0.00,WUHU216HW,2013-03-26 08:59:00,
2013-03-26 05:04:00,32.0,26.6,29.92,NNW,338,1.9,2.2,80,0.00,,,0.00,WUHU216HW,2013-03-26 09:04:00,
2013-03-26 05:09:00,32.0,26.6,29.92,NNW,331,2.0,2.7,80,0.00,,,0.00,WUHU216HW,2013-03-26 09:09:00,
2013-03-26 05:14:00,31.9,26.1,29.93,North,357,2.2,2.5,79,0.00,,,0.00,WUHU216HW,2013-03-26 09:14:00,
2013-03-26 05:20:00,31.9,26.5,29.93,NNW,344,1.6,2.2,80,0.00,,,0.00,WUHU216HW,2013-03-26 09:20:00,
2013-03-26 05:25:00,31.9,26.5,29.92,NNW,342,1.8,1.8,80,0.00,,,0.00,WUHU216HW,2013-03-26 09:25:00,
2013-03-26 05:30:00,31.7,26.3,29.93,North,353,0.9,1.1,80,0.00,,,0.00,WUHU216HW,2013-03-26 09:30:00,
2013-03-26 05:35:00,31.7,26.3,29.93,NNW,347,1.5,2.9,80,0.00,,,0.00,WUHU216HW,2013-03-26 09:35:00,
2013-03-26 05:40:00,31.7,26.3,29.93,North,352,0.8,1.1,80,0.00,,,0.00,WUHU216HW,2013-03-26 09:40:00,
2013-03-26 05:45:00,31.7,26.6,29.93,North,6,1.5,1.8,81,0.00,,,0.00,WUHU216HW,2013-03-26 09:45:00,
2013-03-26 05:50:00,31.5,26.4,29.93,NNW,338,1.0,1.1,81,0.00,,,0.00,WUHU216HW,2013-03-26 09:50:00,
2013-03-26 05:55:00,31.5,26.4,29.93,NNW,348,1.3,1.8,81,0.00,,,0.00,WUHU216HW,2013-03-26 09:55:00,
2013-03-26 06:00:00,31.5,26.4,29.93,NNW,338,0.5,0.7,81,0.00,,,0.00,WUHU216HW,2013-03-26 10:00:00,
2013-03-26 06:05:00,31.3,26.2,29.93,NNW,338,0.5,0.9,81,0.00,,,0.00,WUHU216HW,2013-03-26 10:05:00,
2013-03-26 06:10:00,31.3,26.2,29.93,NNW,338,0.4,0.7,81,0.00,,,0.00,WUHU216HW,2013-03-26 10:10:00,
2013-03-26 06:16:00,31.3,26.2,29.94,North,354,0.8,1.1,81,0.00,,,0.00,WUHU216HW,2013-03-26 10:16:00,
2013-03-26 06:21:00,31.3,26.2,29.94,NNW,338,1.1,1.3,81,0.00,,,0.00,WUHU216HW,2013-03-26 10:21:00,
2013-03-26 06:26:00,31.3,26.5,29.94,NNW,335,1.2,1.8,82,0.00,,,0.00,WUHU216HW,2013-03-26 10:26:00,
2013-03-26 06:31:00,31.3,26.5,29.94,North,352,1.8,2.9,82,0.00,,,0.00,WUHU216HW,2013-03-26 10:31:00,
2013-03-26 06:36:00,31.3,26.5,29.94,NNW,339,1.4,1.6,82,0.00,,,0.00,WUHU216HW,2013-03-26 10:36:00,
2013-03-26 06:41:00,31.3,26.5,29.94,NNW,339,2.3,2.5,82,0.00,,,0.00,WUHU216HW,2013-03-26 10:41:00,
2013-03-26 06:46:00,31.3,26.5,29.95,NNW,330,1.4,2.0,82,0.00,,,0.00,WUHU216HW,2013-03-26 10:46:00,
2013-03-26 06:51:00,31.3,26.8,29.95,NNW,344,1.7,2.5,83,0.00,,,0.00,WUHU216HW,2013-03-26 10:51:00,
2013-03-26 06:56:00,31.3,26.8,29.95,NNW,327,1.4,1.8,83,0.00,,,0.00,WUHU216HW,2013-03-26 10:56:00,
2013-03-26 07:01:00,31.3,26.8,29.95,NNW,330,1.4,2.2,83,0.00,,,0.00,WUHU216HW,2013-03-26 11:01:00,
2013-03-26 07:07:00,31.3,26.8,29.95,NNW,340,1.2,2.2,83,0.00,,,0.00,WUHU216HW,2013-03-26 11:07:00,
2013-03-26 07:12:00,31.1,26.7,29.95,NW,320,1.2,1.6,83,0.00,,,0.00,WUHU216HW,2013-03-26 11:12:00,
2013-03-26 07:17:00,31.1,26.7,29.95,North,349,1.0,1.8,83,0.00,,,0.00,WUHU216HW,2013-03-26 11:17:00,
2013-03-26 07:22:00,31.0,26.5,29.95,NNW,338,0.2,0.4,83,0.00,,,0.00,WUHU216HW,2013-03-26 11:22:00,
2013-03-26 07:27:00,31.0,26.5,29.96,NNW,338,2.1,2.5,83,0.00,,,0.00,WUHU216HW,2013-03-26 11:27:00,
2013-03-26 07:33:00,31.0,26.5,29.96,NW,322,1.5,1.8,83,0.00,,,0.00,WUHU216HW,2013-03-26 11:33:00,
2013-03-26 07:38:00,31.0,26.5,29.96,NNW,339,2.3,2.7,83,0.00,,,0.00,WUHU216HW,2013-03-26 11:38:00,
2013-03-26 07:43:00,31.0,26.5,29.96,NNW,334,1.2,1.3,83,0.00,,,0.00,WUHU216HW,2013-03-26 11:43:00,
2013-03-26 07:48:00,30.8,26.3,29.97,NNW,332,1.5,2.5,83,0.00,,,0.00,WUHU216HW,2013-03-26 11:48:00,
2013-03-26 07:53:00,31.0,26.5,29.97,NNW,329,2.4,2.9,83,0.00,,,0.00,WUHU216HW,2013-03-26 11:53:00,
2013-03-26 07:58:00,31.0,26.7,29.97,NNW,346,1.4,2.0,84,0.00,,,0.00,WUHU216HW,2013-03-26 11:58:00,
2013-03-26 08:03:00,31.0,26.7,29.97,NNW,329,1.6,2.0,84,0.00,,,0.00,WUHU216HW,2013-03-26 12:03:00,
2013-03-26 08:08:00,31.1,26.9,29.97,NNW,338,1.8,1.8,84,0.00,,,0.00,WUHU216HW,2013-03-26 12:08:00,
2013-03-26 08:13:00,31.1,26.9,29.97,NNW,333,2.3,4.0,84,0.00,,,0.00,WUHU216HW,2013-03-26 12:13:00,
2013-03-26 08:19:00,31.3,27.1,29.98,NNW,339,2.7,3.1,84,0.00,,,0.00,WUHU216HW,2013-03-26 12:19:00,
2013-03-26 08:24:00,31.3,27.1,29.98,NW,308,1.5,2.5,84,0.00,,,0.00,WUHU216HW,2013-03-26 12:24:00,
2013-03-26 08:29:00,31.3,27.1,29.98,NNW,330,1.4,2.2,84,0.00,,,0.00,WUHU216HW,2013-03-26 12:29:00,
2013-03-26 08:34:00,31.5,27.3,29.98,NNW,346,1.6,2.7,84,0.00,,,0.00,WUHU216HW,2013-03-26 12:34:00,
2013-03-26 08:39:00,31.7,27.2,29.98,NNW,346,2.4,4.0,83,0.00,,,0.00,WUHU216HW,2013-03-26 12:39:00,
2013-03-26 08:44:00,31.9,27.4,29.98,North,353,1.2,1.6,83,0.00,,,0.00,WUHU216HW,2013-03-26 12:44:00,
2013-03-26 08:50:00,32.0,27.6,29.99,West,264,1.3,3.1,83,0.00,,,0.00,WUHU216HW,2013-03-26 12:50:00,
2013-03-26 08:55:00,32.0,27.6,29.99,NW,314,3.2,4.3,83,0.00,,,0.00,WUHU216HW,2013-03-26 12:55:00,
2013-03-26 09:00:00,32.2,27.6,29.99,NNW,348,2.1,4.0,83,0.00,,,0.00,WUHU216HW,2013-03-26 13:00:00,
2013-03-26 09:05:00,32.4,27.8,29.99,NNW,328,1.3,1.6,83,0.00,,,0.00,WUHU216HW,2013-03-26 13:05:00,
2013-03-26 09:10:00,32.4,27.8,29.99,North,351,1.7,2.5,83,0.00,,,0.00,WUHU216HW,2013-03-26 13:10:00,
2013-03-26 09:15:00,32.6,28.0,29.99,NW,321,1.3,3.4,83,0.00,,,0.00,WUHU216HW,2013-03-26 13:15:00,
2013-03-26 09:20:00,32.8,28.2,29.99,NW,319,1.2,1.8,83,0.00,,,0.00,WUHU216HW,2013-03-26 13:20:00,
2013-03-26 09:25:00,32.8,28.2,30.00,NNW,330,2.5,3.6,83,0.00,,,0.00,WUHU216HW,2013-03-26 13:25:00,
2013-03-26 09:30:00,32.9,28.4,30.00,NNW,338,1.7,2.2,83,0.00,,,0.00,WUHU216HW,2013-03-26 13:30:00,
2013-03-26 09:35:00,33.1,28.2,30.00,NNW,341,3.2,4.5,82,0.00,,,0.00,WUHU216HW,2013-03-26 13:35:00,
2013-03-26 09:40:00,33.1,28.2,30.00,NNW,342,1.5,2.5,82,0.00,,,0.00,WUHU216HW,2013-03-26 13:40:00,
2013-03-26 09:46:00,33.5,28.5,30.00,NNW,331,2.6,3.4,82,0.00,,,0.00,WUHU216HW,2013-03-26 13:46:00,
2013-03-26 09:51:00,33.5,28.5,30.00,NNW,342,2.8,4.5,82,0.00,,,0.00,WUHU216HW,2013-03-26 13:51:00,
2013-03-26 09:56:00,33.5,28.5,30.00,NNW,345,1.6,1.8,82,0.00,,,0.00,WUHU216HW,2013-03-26 13:56:00,
2013-03-26 10:02:00,33.5,28.3,30.00,NNW,329,2.1,3.4,81,0.00,,,0.00,WUHU216HW,2013-03-26 14:02:00,
2013-03-26 10:07:00,33.7,28.4,30.00,NNW,334,1.4,2.7,81,0.00,,,0.00,WUHU216HW,2013-03-26 14:07:00,
2013-03-26 10:12:00,33.8,28.5,30.00,NNW,338,1.9,2.5,81,0.00,,,0.00,WUHU216HW,2013-03-26 14:12:00,
2013-03-26 10:17:00,34.0,29.0,30.00,NNW,331,1.2,1.8,82,0.00,,,0.00,WUHU216HW,2013-03-26 14:17:00,
2013-03-26 10:22:00,35.3,30.6,30.01,WNW,300,3.9,4.7,83,0.00,,,0.00,WUHU216HW,2013-03-26 14:22:00,
2013-03-26 10:27:00,36.9,31.6,30.00,North,351,3.5,4.9,81,0.00,,,0.00,WUHU216HW,2013-03-26 14:27:00,
2013-03-26 10:33:00,37.3,31.1,30.01,NW,315,4.2,5.4,78,0.00,,,0.00,WUHU216HW,2013-03-26 14:33:00,
2013-03-26 10:38:00,36.9,30.7,30.01,NNW,347,2.8,3.6,78,0.00,,,0.00,WUHU216HW,2013-03-26 14:38:00,
2013-03-26 10:43:00,36.7,30.5,30.01,NNW,342,2.6,3.8,78,0.00,,,0.00,WUHU216HW,2013-03-26 14:43:00,
2013-03-26 10:48:00,37.1,30.9,30.00,NW,326,2.6,4.5,78,0.00,,,0.00,WUHU216HW,2013-03-26 14:48:00,
2013-03-26 10:53:00,37.4,30.9,30.01,NNW,338,3.1,3.4,77,0.00,,,0.00,WUHU216HW,2013-03-26 14:53:00,
2013-03-26 10:58:00,38.2,32.0,30.01,NNW,345,4.3,5.4,78,0.00,,,0.00,WUHU216HW,2013-03-26 14:58:00,
2013-03-26 11:03:00,39.1,32.8,30.01,North,355,5.3,5.8,78,0.00,,,0.00,WUHU216HW,2013-03-26 15:03:00,
2013-03-26 11:08:00,38.9,32.3,30.01,NNW,347,3.4,4.3,77,0.00,,,0.00,WUHU216HW,2013-03-26 15:08:00,
2013-03-26 11:13:00,38.9,32.3,30.01,NNW,348,4.6,4.9,77,0.00,,,0.00,WUHU216HW,2013-03-26 15:13:00,
2013-03-26 11:18:00,38.2,31.6,30.02,NNW,335,3.5,4.3,77,0.00,,,0.00,WUHU216HW,2013-03-26 15:18:00,
2013-03-26 11:23:00,36.2,30.0,30.02,NNW,339,1.5,2.2,78,0.00,,,0.00,WUHU216HW,2013-03-26 15:23:00,
2013-03-26 11:28:00,35.3,29.7,30.01,West,277,1.8,2.2,80,0.00,,,0.00,WUHU216HW,2013-03-26 15:28:00,
2013-03-26 11:33:00,35.3,30.2,30.02,NNW,344,1.9,2.5,82,0.00,,,0.00,WUHU216HW,2013-03-26 15:33:00,
2013-03-26 11:38:00,35.8,30.8,30.02,North,349,1.8,2.5,82,0.00,,,0.00,WUHU216HW,2013-03-26 15:38:00,
2013-03-26 11:43:00,36.5,31.5,30.02,NNW,339,1.6,3.4,82,0.00,,,0.00,WUHU216HW,2013-03-26 15:43:00,
2013-03-26 11:48:00,37.1,31.8,30.02,NW,310,4.0,5.1,81,0.00,,,0.00,WUHU216HW,2013-03-26 15:48:00,
2013-03-26 11:53:00,37.4,31.9,30.02,NNW,338,3.3,3.8,80,0.00,,,0.00,WUHU216HW,2013-03-26 15:53:00,
2013-03-26 11:58:00,37.8,31.9,30.02,NNW,333,3.4,4.0,79,0.00,,,0.00,WUHU216HW,2013-03-26 15:58:00,
2013-03-26 12:03:00,38.3,32.1,30.02,NW,323,2.9,3.4,78,0.00,,,0.00,WUHU216HW,2013-03-26 16:03:00,
2013-03-26 12:09:00,38.5,32.3,30.02,West,278,2.7,3.4,78,0.00,,,0.00,WUHU216HW,2013-03-26 16:09:00,
2013-03-26 12:14:00,38.7,32.1,30.02,North,351,3.5,4.3,77,0.00,,,0.00,WUHU216HW,2013-03-26 16:14:00,
2013-03-26 12:19:00,38.9,32.3,30.02,West,279,3.4,6.3,77,0.00,,,0.00,WUHU216HW,2013-03-26 16:19:00,
2013-03-26 12:24:00,39.2,32.3,30.02,NNW,331,1.7,2.5,76,0.00,,,0.00,WUHU216HW,2013-03-26 16:24:00,
2013-03-26 12:29:00,39.6,32.7,30.02,WNW,290,2.6,3.8,76,0.00,,,0.00,WUHU216HW,2013-03-26 16:29:00,
2013-03-26 12:34:00,40.1,32.5,30.02,WNW,284,3.9,4.7,74,0.00,,,0.00,WUHU216HW,2013-03-26 16:34:00,
2013-03-26 12:39:00,40.5,32.1,30.02,NNW,348,2.5,3.4,72,0.00,,,0.00,WUHU216HW,2013-03-26 16:39:00,
2013-03-26 12:44:00,40.7,32.3,30.02,NNW,327,3.6,4.5,72,0.00,,,0.00,WUHU216HW,2013-03-26 16:44:00,
2013-03-26 12:49:00,41.0,32.4,30.01,NNW,342,2.0,2.9,71,0.00,,,0.00,WUHU216HW,2013-03-26 16:49:00,
2013-03-26 12:54:00,41.4,32.4,30.01,NNW,332,3.9,5.1,70,0.00,,,0.00,WUHU216HW,2013-03-26 16:54:00,
2013-03-26 12:59:00,41.4,32.1,30.01,North,350,3.3,4.0,69,0.00,,,0.00,WUHU216HW,2013-03-26 16:59:00,
2013-03-26 13:05:00,41.4,32.1,30.01,North,3,2.5,3.8,69,0.00,,,0.00,WUHU216HW,2013-03-26 17:05:00,
2013-03-26 13:10:00,41.2,31.5,30.01,NW,317,3.5,4.0,68,0.00,,,0.00,WUHU216HW,2013-03-26 17:10:00,
2013-03-26 13:15:00,41.4,31.2,30.01,NNW,328,4.1,6.5,67,0.00,,,0.00,WUHU216HW,2013-03-26 17:15:00,
2013-03-26 13:20:00,41.8,30.9,30.01,NNW,345,4.0,4.7,65,0.00,,,0.00,WUHU216HW,2013-03-26 17:20:00,
2013-03-26 13:25:00,41.9,31.8,30.01,NNW,342,4.2,6.0,67,0.00,,,0.00,WUHU216HW,2013-03-26 17:25:00,
2013-03-26 13:30:00,42.1,31.1,30.01,North,351,2.9,4.0,65,0.00,,,0.00,WUHU216HW,2013-03-26 17:30:00,
2013-03-26 13:35:00,41.9,30.6,30.01,NNW,344,3.3,3.6,64,0.00,,,0.00,WUHU216HW,2013-03-26 17:35:00,
2013-03-26 13:40:00,42.1,32.0,30.01,North,358,4.8,5.4,67,0.00,,,0.00,WUHU216HW,2013-03-26 17:40:00,
2013-03-26 13:45:00,42.1,31.1,30.01,NNW,348,3.5,4.7,65,0.00,,,0.00,WUHU216HW,2013-03-26 17:45:00,
2013-03-26 13:50:00,42.3,31.3,30.01,NW,320,5.1,7.6,65,0.00,,,0.00,WUHU216HW,2013-03-26 17:50:00,
2013-03-26 13:55:00,42.1,31.1,30.01,NW,324,2.0,2.5,65,0.00,,,0.00,WUHU216HW,2013-03-26 17:55:00,
2013-03-26 14:00:00,42.3,31.8,30.01,North,353,2.2,2.9,66,0.00,,,0.00,WUHU216HW,2013-03-26 18:00:00,
2013-03-26 14:05:00,43.0,32.1,30.01,North,356,3.9,5.4,65,0.00,,,0.00,WUHU216HW,2013-03-26 18:05:00,
2013-03-26 14:10:00,43.2,31.4,30.01,NW,320,2.4,2.7,63,0.00,,,0.00,WUHU216HW,2013-03-26 18:10:00,
2013-03-26 14:15:00,43.0,31.2,30.01,NNW,347,3.1,4.5,63,0.00,,,0.00,WUHU216HW,2013-03-26 18:15:00,
2013-03-26 14:20:00,42.7,30.2,30.00,NNW,342,2.6,3.4,61,0.00,,,0.00,WUHU216HW,2013-03-26 18:20:00,
2013-03-26 14:26:00,42.8,30.2,30.01,NNW,348,2.3,2.9,61,0.00,,,0.00,WUHU216HW,2013-03-26 18:26:00,
2013-03-26 14:31:00,42.8,29.4,30.00,North,1,5.7,6.3,59,0.00,,,0.00,WUHU216HW,2013-03-26 18:31:00,
2013-03-26 14:36:00,43.0,30.1,30.00,NNW,340,4.1,6.5,60,0.00,,,0.00,WUHU216HW,2013-03-26 18:36:00,
2013-03-26 14:41:00,42.8,29.9,30.00,NW,304,5.8,7.2,60,0.00,,,0.00,WUHU216HW,2013-03-26 18:41:00,
2013-03-26 14:46:00,41.9,29.9,30.01,NW,312,3.7,4.7,62,0.00,,,0.00,WUHU216HW,2013-03-26 18:46:00,
2013-03-26 14:51:00,41.4,29.0,30.00,NW,318,2.6,3.8,61,0.00,,,0.00,WUHU216HW,2013-03-26 18:51:00,
2013-03-26 14:56:00,41.2,29.2,30.00,NNW,338,2.4,2.5,62,0.00,,,0.00,WUHU216HW,2013-03-26 18:56:00,
2013-03-26 15:01:00,41.4,29.0,30.00,NNW,335,2.4,2.5,61,0.00,,,0.00,WUHU216HW,2013-03-26 19:01:00,
2013-03-26 15:06:00,41.4,29.3,30.00,NW,318,4.0,4.7,62,0.00,,,0.00,WUHU216HW,2013-03-26 19:06:00,
2013-03-26 15:11:00,41.4,29.0,30.00,NNW,338,3.3,5.1,61,0.00,,,0.00,WUHU216HW,2013-03-26 19:11:00,
2013-03-26 15:17:00,41.8,29.7,30.00,NNW,329,2.1,2.5,62,0.00,,,0.00,WUHU216HW,2013-03-26 19:17:00,
2013-03-26 15:22:00,42.1,29.6,30.00,WNW,303,5.7,6.3,61,0.00,,,0.00,WUHU216HW,2013-03-26 19:22:00,
2013-03-26 15:27:00,42.1,28.8,30.00,NNW,345,2.7,4.0,59,0.00,,,0.00,WUHU216HW,2013-03-26 19:27:00,
2013-03-26 15:32:00,41.8,28.0,30.00,NW,324,3.5,4.0,58,0.00,,,0.00,WUHU216HW,2013-03-26 19:32:00,
2013-03-26 15:37:00,41.6,27.9,30.01,NW,319,2.6,3.4,58,0.00,,,0.00,WUHU216HW,2013-03-26 19:37:00,
2013-03-26 15:43:00,41.4,28.2,30.00,NW,318,3.1,3.4,59,0.00,,,0.00,WUHU216HW,2013-03-26 19:43:00,
2013-03-26 15:48:00,40.9,28.4,30.00,NW,309,4.2,6.3,61,0.00,,,0.00,WUHU216HW,2013-03-26 19:48:00,
2013-03-26 15:53:00,40.9,29.3,30.01,NW,308,6.2,6.9,63,0.00,,,0.00,WUHU216HW,2013-03-26 19:53:00,
2013-03-26 15:58:00,40.7,29.1,30.00,West,274,4.4,4.7,63,0.00,,,0.00,WUHU216HW,2013-03-26 19:58:00,
2013-03-26 16:03:00,40.5,29.3,30.00,West,279,4.8,7.4,64,0.00,,,0.00,WUHU216HW,2013-03-26 20:03:00,
2013-03-26 16:08:00,40.7,29.4,30.01,NW,318,3.7,4.7,64,0.00,,,0.00,WUHU216HW,2013-03-26 20:08:00,
2013-03-26 16:14:00,40.7,29.4,30.01,NW,305,1.7,2.2,64,0.00,,,0.00,WUHU216HW,2013-03-26 20:14:00,
2013-03-26 16:19:00,40.9,30.0,30.01,NW,319,2.2,2.7,65,0.00,,,0.00,WUHU216HW,2013-03-26 20:19:00,
2013-03-26 16:24:00,40.7,29.4,30.01,NW,307,4.2,4.7,64,0.00,,,0.00,WUHU216HW,2013-03-26 20:24:00,
2013-03-26 16:29:00,40.3,28.7,30.01,NW,309,2.5,3.4,63,0.00,,,0.00,WUHU216HW,2013-03-26 20:29:00,
2013-03-26 16:34:00,40.3,28.3,30.01,North,0,2.3,2.5,62,0.00,,,0.00,WUHU216HW,2013-03-26 20:34:00,
2013-03-26 16:39:00,40.5,28.9,30.01,WNW,299,2.8,3.8,63,0.00,,,0.00,WUHU216HW,2013-03-26 20:39:00,
2013-03-26 16:44:00,40.9,28.8,30.01,WNW,302,3.6,4.7,62,0.00,,,0.00,WUHU216HW,2013-03-26 20:44:00,
2013-03-26 16:49:00,41.0,28.6,30.01,NW,305,3.1,4.7,61,0.00,,,0.00,WUHU216HW,2013-03-26 20:49:00,
2013-03-26 16:54:00,41.4,29.3,30.01,NW,310,3.7,5.4,62,0.00,,,0.00,WUHU216HW,2013-03-26 20:54:00,
2013-03-26 16:59:00,41.6,29.2,30.01,NNW,332,2.4,3.1,61,0.00,,,0.00,WUHU216HW,2013-03-26 20:59:00,
2013-03-26 17:04:00,41.4,29.0,30.01,NNW,343,1.3,2.0,61,0.00,,,0.00,WUHU216HW,2013-03-26 21:04:00,
2013-03-26 17:09:00,41.4,29.3,30.01,NW,324,2.2,2.9,62,0.00,,,0.00,WUHU216HW,2013-03-26 21:09:00,
2013-03-26 17:14:00,41.0,29.0,30.01,NNW,341,2.7,3.4,62,0.00,,,0.00,WUHU216HW,2013-03-26 21:14:00,
2013-03-26 17:19:00,40.7,28.6,30.01,NNW,345,2.6,4.0,62,0.00,,,0.00,WUHU216HW,2013-03-26 21:19:00,
2013-03-26 17:24:00,40.3,28.3,30.01,NNW,332,2.3,3.4,62,0.00,,,0.00,WUHU216HW,2013-03-26 21:24:00,
2013-03-26 17:29:00,40.1,28.5,30.02,NNW,331,2.1,2.5,63,0.00,,,0.00,WUHU216HW,2013-03-26 21:29:00,
2013-03-26 17:35:00,40.1,28.5,30.02,NW,305,3.4,3.8,63,0.00,,,0.00,WUHU216HW,2013-03-26 21:35:00,
2013-03-26 17:40:00,40.3,28.7,30.02,NW,305,2.9,3.8,63,0.00,,,0.00,WUHU216HW,2013-03-26 21:40:00,
2013-03-26 17:46:00,40.3,29.1,30.02,WNW,285,1.4,2.0,64,0.00,,,0.00,WUHU216HW,2013-03-26 21:46:00,
2013-03-26 17:51:00,40.1,28.9,30.01,West,277,2.4,3.1,64,0.00,,,0.00,WUHU216HW,2013-03-26 21:51:00,
2013-03-26 17:56:00,40.3,29.1,30.02,NNW,338,1.1,2.0,64,0.00,,,0.00,WUHU216HW,2013-03-26 21:56:00,
2013-03-26 18:01:00,40.3,29.1,30.02,WNW,302,1.9,4.0,64,0.00,,,0.00,WUHU216HW,2013-03-26 22:01:00,
2013-03-26 18:07:00,40.1,28.9,30.02,WNW,297,4.8,5.4,64,0.00,,,0.00,WUHU216HW,2013-03-26 22:07:00,
2013-03-26 18:12:00,40.0,29.1,30.02,NNW,339,2.5,3.4,65,0.00,,,0.00,WUHU216HW,2013-03-26 22:12:00,
2013-03-26 18:17:00,39.6,28.4,30.02,NNW,340,2.9,3.4,64,0.00,,,0.00,WUHU216HW,2013-03-26 22:17:00,
2013-03-26 18:22:00,39.4,28.2,30.02,NW,318,2.3,3.1,64,0.00,,,0.00,WUHU216HW,2013-03-26 22:22:00,
2013-03-26 18:28:00,39.2,28.4,30.02,NW,310,1.9,3.4,65,0.00,,,0.00,WUHU216HW,2013-03-26 22:28:00,
2013-03-26 18:33:00,39.2,28.4,30.02,NW,321,1.5,3.4,65,0.00,,,0.00,WUHU216HW,2013-03-26 22:33:00,
2013-03-26 18:38:00,39.2,28.4,30.02,WNW,303,2.3,3.1,65,0.00,,,0.00,WUHU216HW,2013-03-26 22:38:00,
2013-03-26 18:43:00,39.1,28.5,30.02,NW,304,4.1,4.7,66,0.00,,,0.00,WUHU216HW,2013-03-26 22:43:00,
2013-03-26 18:48:00,38.9,28.5,30.03,NNW,338,0.5,1.1,66,0.00,,,0.00,WUHU216HW,2013-03-26 22:48:00,
2013-03-26 18:53:00,38.9,28.5,30.03,WNW,299,3.2,3.8,66,0.00,,,0.00,WUHU216HW,2013-03-26 22:53:00,
2013-03-26 18:59:00,38.9,28.5,30.03,NW,315,1.2,1.3,66,0.00,,,0.00,WUHU216HW,2013-03-26 22:59:00,
2013-03-26 19:04:00,38.7,28.3,30.03,NW,321,2.9,3.8,66,0.00,,,0.00,WUHU216HW,2013-03-26 23:04:00,
2013-03-26 19:09:00,38.5,28.1,30.03,NNW,329,1.8,2.5,66,0.00,,,0.00,WUHU216HW,2013-03-26 23:09:00,
2013-03-26 19:14:00,38.5,28.4,30.03,West,275,2.4,4.3,67,0.00,,,0.00,WUHU216HW,2013-03-26 23:14:00,
2013-03-26 19:19:00,38.3,28.3,30.03,NW,320,4.7,4.9,67,0.00,,,0.00,WUHU216HW,2013-03-26 23:19:00,
2013-03-26 19:25:00,38.3,28.3,30.04,West,272,2.3,3.1,67,0.00,,,0.00,WUHU216HW,2013-03-26 23:25:00,
2013-03-26 19:30:00,38.2,28.2,30.04,WNW,287,3.4,4.0,67,0.00,,,0.00,WUHU216HW,2013-03-26 23:30:00,
2013-03-26 19:35:00,38.0,28.0,30.04,WNW,303,3.2,5.4,67,0.00,,,0.00,WUHU216HW,2013-03-26 23:35:00,
2013-03-26 19:40:00,37.8,28.5,30.04,WNW,287,1.4,6.5,69,0.00,,,0.00,WUHU216HW,2013-03-26 23:40:00,
2013-03-26 19:45:00,37.6,28.5,30.04,West,266,1.7,2.5,69,0.00,,,0.00,WUHU216HW,2013-03-26 23:45:00,
2013-03-26 19:50:00,37.4,29.0,30.04,West,268,4.8,6.0,71,0.00,,,0.00,WUHU216HW,2013-03-26 23:50:00,
2013-03-26 19:56:00,37.1,28.6,30.04,West,274,3.8,5.4,71,0.00,,,0.00,WUHU216HW,2013-03-26 23:56:00,
2013-03-26 20:01:00,36.7,28.3,30.04,WNW,286,2.1,2.7,71,0.00,,,0.00,WUHU216HW,2013-03-27 00:01:00,
2013-03-26 20:06:00,36.5,28.4,30.04,NW,312,2.5,4.0,72,0.00,,,0.00,WUHU216HW,2013-03-27 00:06:00,
2013-03-26 20:11:00,36.4,28.5,30.04,WNW,286,2.4,3.1,73,0.00,,,0.00,WUHU216HW,2013-03-27 00:11:00,
2013-03-26 20:16:00,36.2,28.4,30.05,West,263,2.4,4.0,73,0.00,,,0.00,WUHU216HW,2013-03-27 00:16:00,
2013-03-26 20:21:00,36.0,28.2,30.05,WNW,291,1.7,2.0,73,0.00,,,0.00,WUHU216HW,2013-03-27 00:21:00,
2013-03-26 20:26:00,35.8,28.0,30.05,SW,234,1.3,1.6,73,0.00,,,0.00,WUHU216HW,2013-03-27 00:26:00,
2013-03-26 20:31:00,35.6,27.8,30.05,West,260,1.9,2.0,73,0.00,,,0.00,WUHU216HW,2013-03-27 00:31:00,
2013-03-26 20:36:00,35.5,27.9,30.05,West,267,1.4,2.2,74,0.00,,,0.00,WUHU216HW,2013-03-27 00:36:00,
2013-03-26 20:42:00,35.5,27.9,30.05,WNW,296,0.9,1.6,74,0.00,,,0.00,WUHU216HW,2013-03-27 00:42:00,
2013-03-26 20:47:00,35.3,28.1,30.05,West,281,2.0,2.5,75,0.00,,,0.00,WUHU216HW,2013-03-27 00:47:00,
2013-03-26 20:52:00,35.1,27.9,30.05,WSW,241,1.7,2.7,75,0.00,,,0.00,WUHU216HW,2013-03-27 00:52:00,
2013-03-26 20:57:00,35.1,28.3,30.06,West,261,1.2,1.6,76,0.00,,,0.00,WUHU216HW,2013-03-27 00:57:00,
2013-03-26 21:02:00,34.9,28.1,30.06,WSW,241,2.4,4.0,76,0.00,,,0.00,WUHU216HW,2013-03-27 01:02:00,
2013-03-26 21:07:00,34.9,28.1,30.06,West,269,1.7,2.2,76,0.00,,,0.00,WUHU216HW,2013-03-27 01:07:00,
2013-03-26 21:12:00,34.9,28.1,30.06,West,278,1.9,3.4,76,0.00,,,0.00,WUHU216HW,2013-03-27 01:12:00,
2013-03-26 21:17:00,34.9,28.1,30.06,West,264,1.1,1.6,76,0.00,,,0.00,WUHU216HW,2013-03-27 01:17:00,
2013-03-26 21:22:00,34.9,28.1,30.06,WNW,301,1.2,1.6,76,0.00,,,0.00,WUHU216HW,2013-03-27 01:22:00,
2013-03-26 21:27:00,35.1,28.3,30.06,WNW,285,1.3,1.8,76,0.00,,,0.00,WUHU216HW,2013-03-27 01:27:00,
2013-03-26 21:32:00,34.9,28.1,30.06,West,270,0.9,1.6,76,0.00,,,0.00,WUHU216HW,2013-03-27 01:32:00,
2013-03-26 21:37:00,34.9,28.1,30.06,West,272,2.2,2.5,76,0.00,,,0.00,WUHU216HW,2013-03-27 01:37:00,
2013-03-26 21:42:00,34.9,28.1,30.07,NW,326,1.2,1.6,76,0.00,,,0.00,WUHU216HW,2013-03-27 01:42:00,
2013-03-26 21:48:00,34.9,28.1,30.07,WNW,294,1.1,1.6,76,0.00,,,0.00,WUHU216HW,2013-03-27 01:48:00,
2013-03-26 21:53:00,34.9,28.1,30.07,NW,317,1.9,5.4,76,0.00,,,0.00,WUHU216HW,2013-03-27 01:53:00,
2013-03-26 21:58:00,34.9,28.4,30.07,NW,311,3.1,3.6,77,0.00,,,0.00,WUHU216HW,2013-03-27 01:58:00,
2013-03-26 22:03:00,34.9,28.4,30.07,NW,322,1.3,1.8,77,0.00,,,0.00,WUHU216HW,2013-03-27 02:03:00,
2013-03-26 22:08:00,34.9,28.4,30.07,WNW,287,1.4,2.5,77,0.00,,,0.00,WUHU216HW,2013-03-27 02:08:00,
2013-03-26 22:13:00,34.9,28.7,30.07,WNW,301,3.3,3.4,78,0.00,,,0.00,WUHU216HW,2013-03-27 02:13:00,
2013-03-26 22:18:00,34.9,28.7,30.07,WNW,295,2.9,4.3,78,0.00,,,0.00,WUHU216HW,2013-03-27 02:18:00,
2013-03-26 22:23:00,34.9,28.7,30.07,NW,305,1.6,2.5,78,0.00,,,0.00,WUHU216HW,2013-03-27 02:23:00,
2013-03-26 22:28:00,34.9,28.7,30.07,WNW,295,2.0,2.2,78,0.00,,,0.00,WUHU216HW,2013-03-27 02:28:00,
2013-03-26 22:34:00,34.7,28.5,30.07,NW,312,1.9,2.9,78,0.00,,,0.00,WUHU216HW,2013-03-27 02:34:00,
2013-03-26 22:39:00,34.7,28.5,30.08,NW,315,2.0,2.5,78,0.00,,,0.00,WUHU216HW,2013-03-27 02:39:00,
2013-03-26 22:44:00,34.6,28.4,30.07,NW,308,3.0,4.3,78,0.00,,,0.00,WUHU216HW,2013-03-27 02:44:00,
2013-03-26 22:49:00,34.6,28.4,30.07,NNW,340,1.5,1.8,78,0.00,,,0.00,WUHU216HW,2013-03-27 02:49:00,
2013-03-26 22:54:00,34.6,28.4,30.08,NNW,346,2.5,4.7,78,0.00,,,0.00,WUHU216HW,2013-03-27 02:54:00,
2013-03-26 22:59:00,34.6,28.6,30.07,WNW,295,2.3,3.1,79,0.00,,,0.00,WUHU216HW,2013-03-27 02:59:00,
2013-03-26 23:04:00,34.6,28.6,30.07,West,276,2.2,2.9,79,0.00,,,0.00,WUHU216HW,2013-03-27 03:04:00,
2013-03-26 23:09:00,34.4,28.4,30.07,West,278,0.8,1.1,79,0.00,,,0.00,WUHU216HW,2013-03-27 03:09:00,
2013-03-26 23:14:00,34.4,28.8,30.07,WNW,290,0.8,1.8,80,0.00,,,0.00,WUHU216HW,2013-03-27 03:14:00,
2013-03-26 23:19:00,34.2,28.3,30.07,WNW,283,2.3,2.7,79,0.00,,,0.00,WUHU216HW,2013-03-27 03:19:00,
2013-03-26 23:24:00,34.2,28.6,30.08,WNW,302,1.2,1.8,80,0.00,,,0.00,WUHU216HW,2013-03-27 03:24:00,
2013-03-26 23:29:00,34.2,28.6,30.08,WNW,292,1.8,2.2,80,0.00,,,0.00,WUHU216HW,2013-03-27 03:29:00,
2013-03-26 23:35:00,34.0,28.4,30.07,NW,316,2.1,2.9,80,0.00,,,0.00,WUHU216HW,2013-03-27 03:35:00,
2013-03-26 23:40:00,34.2,28.6,30.07,NW,315,2.1,2.5,80,0.00,,,0.00,WUHU216HW,2013-03-27 03:40:00,
2013-03-26 23:46:00,34.2,28.6,30.08,NW,326,0.8,1.1,80,0.00,,,0.00,WUHU216HW,2013-03-27 03:46:00,
2013-03-26 23:51:00,34.0,28.4,30.08,North,353,0.8,1.1,80,0.00,,,0.00,WUHU216HW,2013-03-27 03:51:00,
2013-03-26 23:56:00,34.0,28.1,30.08,NW,320,1.0,1.3,79,0.00,,,0.00,WUHU216HW,2013-03-27 03:56:00,